ポンタ・デルガダ空港の過去48時間の天気

ポンタ・デルガダ空港 (Ponta Delgada / Nordela Acores )

現在時刻: 10/4 12:28 +00 (10/4 12:28 UTC) 以下の時間は現地時間です。

過去48時間のMETAR気象情報
時間 風向 風速(m/s) 視程 気温(℃) 湿度(%) 気圧(hPa) 天気現象
4 12:00 南西 7 10km以上 23 89 1020
4 11:30 南西 6 10km以上 23 94 1020
4 11:00 南西 6 10km以上 22 94 1020
4 10:30 西南西 4 10km以上 22 94 1020 周辺でしゅう雨
4 10:00 南西 5 10km以上 22 94 1020 周辺でしゅう雨
4 09:30 西南西 5 10km以上 22 94 1020
4 09:00 南西 4 10km以上 22 94 1020
4 08:30 西南西 4 10km以上 22 94 1019
4 08:00 南西 4 10km以上 22 88 1019
4 07:30 西南西 4 10km以上 22 88 1019
4 07:00 南西 4 10km以上 22 94 1019
4 06:30 南西 4 10km以上 22 88 1019
4 06:00 南西 4 10km以上 22 88 1019
4 05:30 南西 4 10km以上 22 94 1019
4 05:00 南西 4 10km以上 22 94 1019
4 04:30 南西 4 10km以上 22 94 1018
4 04:00 南西 4 10km以上 22 88 1018
4 03:30 南西 4 10km以上 22 88 1019
4 03:00 南西 4 10km以上 22 94 1019
4 02:30 南南西 5 10km以上 22 94 1019
4 02:00 南西 4 10km以上 22 94 1019
4 01:30 南西 5 10km以上 22 94 1019 弱いしゅう雨
4 01:00 南南西 4 10km以上 22 94 1019
4 00:30 南南西 4 10km以上 22 94 1019
4 00:00 4 10km以上 22 94 1020
3 23:30 南南西 4 10km以上 22 94 1020 弱い雨 弱い霧雨
3 23:00 4 10km以上 22 94 1020
3 22:30 5 10km以上 22 94 1020
3 22:00 4 10km以上 22 94 1020
3 21:30 4 10km以上 22 94 1020
3 21:00 3 10km以上 22 94 1020
3 20:30 南南東 3 10km以上 22 94 1019
3 20:00 南南東 3 10km以上 22 94 1019
3 19:30 南南東 3 10km以上 22 88 1019
3 19:00 南南東 4 10km以上 22 88 1019
3 18:30 5 10km以上 23 89 1019
3 18:00 5 10km以上 22 88 1019
3 17:30 4 10km以上 22 88 1018
3 17:00 4 10km以上 23 83 1018
3 16:30 5 10km以上 23 83 1018
3 16:00 6 10km以上 23 83 1018
3 15:30 6 10km以上 22 88 1019
3 15:00 南南東 6 10km以上 23 83 1019 周辺でしゅう雨
3 14:30 南南東 6 10km以上 24 78 1019
3 14:00 南東 6 10km以上 24 78 1019
3 13:30 南南東 6 10km以上 24 78 1019
3 13:00 南東 6 10km以上 24 78 1020
3 12:30 南東 6 10km以上 24 78 1020
3 12:00 南東 6 10km以上 24 78 1020
3 11:30 南東 6 10km以上 24 74 1020
3 11:00 南東 6 10km以上 23 83 1019
3 10:30 南東 6 10km以上 23 83 1019
3 10:00 南南東 5 10km以上 23 78 1019
3 09:30 南南東 5 10km以上 22 83 1019
3 09:00 南東 5 10km以上 22 83 1019
3 08:30 南東 6 10km以上 21 88 1018
3 08:00 南東 5 10km以上 21 88 1018
3 07:30 南東 5 10km以上 21 88 1018
3 07:00 南東 6 10km以上 21 88 1017
3 06:30 南東 6 10km以上 21 88 1017
3 06:00 南南東 5 10km以上 21 88 1017
3 05:30 南東 5 10km以上 21 88 1017
3 05:00 南東 5 10km以上 21 88 1017
3 04:30 南東 5 10km以上 21 88 1017
3 04:00 南東 5 10km以上 21 88 1017
3 03:30 南東 5 10km以上 21 88 1017
3 03:00 南南東 5 10km以上 22 83 1018
3 02:30 南南東 5 10km以上 22 83 1017
3 02:00 南南東 5 10km以上 22 83 1018
3 01:30 南南東 6 10km以上 22 83 1018
3 01:00 南東 6 10km以上 22 83 1018
3 00:30 南東 6 10km以上 22 83 1018
3 00:00 南東 6 10km以上 22 83 1018
2 23:30 南東 5 10km以上 21 88 1018
2 23:00 南南東 6 10km以上 21 88 1018
2 22:30 南南東 6 10km以上 21 88 1018
2 22:00 南南東 7 10km以上 22 83 1018
2 21:30 南南東 6 10km以上 22 83 1018
2 21:00 南南東 6 10km以上 22 83 1017
2 20:30 南南東 6 10km以上 22 83 1017
2 20:00 南南東 6 10km以上 22 83 1017
2 19:30 南南東 5 10km以上 22 83 1017
2 19:00 南南東 5 10km以上 22 83 1017
2 18:30 南南東 5 10km以上 22 83 1017
2 18:00 7 10km以上 23 78 1017
2 17:30 6 10km以上 22 83 1017
2 17:00 7 10km以上 22 83 1017
2 16:30 6 10km以上 23 78 1017
2 16:00 7 10km以上 23 78 1017
2 15:30 7 10km以上 23 73 1017
2 15:00 7 10km以上 23 78 1018
2 14:30 8 10km以上 23 73 1018
2 14:00 8 10km以上 23 73 1018
2 13:30 南南東 7 10km以上 23 78 1018
2 13:00 南南東 7 10km以上 22 78 1018 周辺でしゅう雨
2 12:30 南南東 7 10km以上 22 83 1018
LPPD 041200Z 22013KT 9999 FEW006 SCT013 FEW015TCU 23/21 Q1020
LPPD 041130Z 22011KT 9999 FEW006 SCT013 FEW015TCU 23/22 Q1020
LPPD 041100Z 22011KT 9999 FEW006 SCT012 FEW015TCU 22/21 Q1020
LPPD 041030Z 24008KT 9999 VCSH FEW006 SCT012 FEW015TCU 22/21 Q1020
LPPD 041000Z 23009KT 9999 VCSH FEW006 SCT012 FEW015TCU 22/21 Q1020
LPPD 040930Z 24009KT 9999 FEW006 SCT013 FEW015TCU 22/21 Q1020
LPPD 040900Z 23007KT 220V310 9999 FEW006 SCT013 22/21 Q1020
LPPD 040830Z 24007KT 9999 FEW006 SCT012 22/21 Q1019
LPPD 040800Z 23007KT 9999 SCT012 SCT030 22/20 Q1019
LPPD 040730Z 24007KT 210V270 9999 SCT013 SCT030 22/20 Q1019
LPPD 040700Z 23007KT 9999 SCT013 22/21 Q1019
LPPD 040630Z 23007KT 9999 SCT013 22/20 Q1019
LPPD 040600Z 23007KT 9999 SCT013 22/20 Q1019
LPPD 040530Z 23007KT 9999 FEW006 SCT013 22/21 Q1019
LPPD 040500Z 23007KT 9999 FEW006 SCT013 22/21 Q1019
LPPD 040430Z 23008KT 9999 FEW006 SCT013 22/21 Q1018
LPPD 040400Z 22007KT 9999 FEW006 SCT013 22/20 Q1018
LPPD 040330Z 22008KT 9999 FEW006 SCT013 BKN030 22/20 Q1019
LPPD 040300Z 22008KT 9999 FEW006 SCT013 BKN030 22/21 Q1019
LPPD 040230Z 21009KT 9999 SCT005 BKN013 22/21 Q1019
LPPD 040200Z 22008KT 9999 SCT005 BKN013 22/21 Q1019
LPPD 040130Z 22009KT 9999 -SHRA SCT005 BKN013 22/21 Q1019
LPPD 040100Z 20007KT 9999 SCT006 BKN014 22/21 Q1019
LPPD 040030Z 20007KT 9999 SCT006 BKN014 22/21 Q1019
LPPD 040000Z 18007KT 9999 SCT006 BKN014 22/21 Q1020
LPPD 032330Z 20007KT 9999 -RADZ SCT006 BKN010 22/21 Q1020
LPPD 032300Z 18007KT 150V210 9999 SCT005 BKN010 22/21 Q1020 RERA
LPPD 032230Z 18009KT 9999 SCT006 BKN010 22/21 Q1020
LPPD 032200Z 18008KT 9999 SCT006 BKN012 22/21 Q1020
LPPD 032130Z 17008KT 9999 SCT006 BKN010 22/21 Q1020
LPPD 032100Z 17006KT 9999 FEW006 BKN010 22/21 Q1020
LPPD 032030Z 16006KT 130V230 9999 FEW006 BKN012 22/21 Q1019
LPPD 032000Z 16006KT 120V180 9999 FEW006 SCT012 22/21 Q1019
LPPD 031930Z 16006KT 9999 FEW006 SCT013 22/20 Q1019
LPPD 031900Z 16007KT 140V200 9999 FEW006 SCT045 22/20 Q1019
LPPD 031830Z 17009KT 9999 FEW006 SCT045 23/21 Q1019
LPPD 031800Z 17009KT 9999 FEW006 BKN040 22/20 Q1019
LPPD 031730Z 18008KT 9999 FEW007 BKN040 22/20 Q1018
LPPD 031700Z 17008KT 9999 FEW008 BKN040 23/20 Q1018
LPPD 031630Z 17010KT 9999 FEW008 BKN040 23/20 Q1018
LPPD 031600Z 17011KT 9999 FEW007 SCT014 BKN030 23/20 Q1018
LPPD 031530Z 17011KT 9999 FEW008 SCT016 BKN030 22/20 Q1019
LPPD 031500Z 15011KT 9999 VCSH FEW016 BKN030 23/20 Q1019
LPPD 031430Z 15012KT 9999 FEW015 BKN025 24/20 Q1019
LPPD 031400Z 14011KT 9999 FEW016 24/20 Q1019
LPPD 031330Z 15011KT 9999 FEW008 SCT014 24/20 Q1019
LPPD 031300Z 14012KT 9999 SCT016 24/20 Q1020
LPPD 031230Z 14011KT 9999 FEW018 24/20 Q1020
LPPD 031200Z 14011KT 9999 SCT018 24/20 Q1020
LPPD 031130Z 14011KT 9999 SCT018 24/19 Q1020
LPPD 031100Z 14011KT 9999 SCT018 23/20 Q1019
LPPD 031030Z 14011KT 9999 FEW018 23/20 Q1019
LPPD 031000Z 15010KT 9999 SCT016 23/19 Q1019
LPPD 030930Z 15009KT 9999 SCT016 22/19 Q1019
LPPD 030900Z 14009KT 9999 FEW016 22/19 Q1019
LPPD 030830Z 14011KT 9999 FEW016 21/19 Q1018
LPPD 030800Z 14009KT 9999 FEW016 21/19 Q1018
LPPD 030730Z 14009KT 9999 SCT016 21/19 Q1018
LPPD 030700Z 14011KT 9999 FEW018 21/19 Q1017
LPPD 030630Z 14011KT 9999 FEW014 21/19 Q1017
LPPD 030600Z 15010KT 9999 FEW014 21/19 Q1017
LPPD 030530Z 14009KT 9999 FEW016 21/19 Q1017
LPPD 030500Z 14010KT 9999 FEW016 21/19 Q1017
LPPD 030430Z 14010KT 9999 FEW014 21/19 Q1017
LPPD 030400Z 14010KT 9999 SCT014 21/19 Q1017
LPPD 030330Z 14009KT 9999 SCT014 21/19 Q1017
LPPD 030300Z 15010KT 9999 FEW018 22/19 Q1018
LPPD 030230Z 15010KT 9999 FEW018 22/19 Q1017
LPPD 030200Z 15010KT 9999 FEW018 BKN045 22/19 Q1018
LPPD 030130Z 15011KT 9999 FEW018 BKN045 22/19 Q1018
LPPD 030100Z 14011KT 9999 SCT016 BKN040 22/19 Q1018
LPPD 030030Z 14011KT 9999 SCT018 SCT035 22/19 Q1018
LPPD 030000Z 14012KT 9999 FEW013 22/19 Q1018
LPPD 022330Z 14010KT 9999 FEW013 21/19 Q1018
LPPD 022300Z 15011KT 9999 FEW013 21/19 Q1018
LPPD 022230Z 15012KT 9999 FEW014 21/19 Q1018
LPPD 022200Z 15013KT 9999 FEW014 SCT045 22/19 Q1018
LPPD 022130Z 15012KT 9999 FEW016 22/19 Q1018
LPPD 022100Z 15012KT 130V190 9999 FEW016 22/19 Q1017
LPPD 022030Z 15012KT 9999 FEW016 22/19 Q1017
LPPD 022000Z 15012KT 9999 FEW016 22/19 Q1017
LPPD 021930Z 16009KT 9999 FEW016 22/19 Q1017
LPPD 021900Z 16010KT 9999 FEW016 22/19 Q1017
LPPD 021830Z 16010KT 090V190 9999 FEW016 22/19 Q1017
LPPD 021800Z 17013KT 9999 FEW018 23/19 Q1017
LPPD 021730Z 17012KT 9999 FEW016 22/19 Q1017
LPPD 021700Z 17014KT 9999 SCT016 22/19 Q1017
LPPD 021630Z 17012KT 9999 SCT016 23/19 Q1017
LPPD 021600Z 17014KT 9999 FEW016 23/19 Q1017
LPPD 021530Z 17014KT 9999 FEW016 23/18 Q1017
LPPD 021500Z 17014KT 9999 FEW016 23/19 Q1018
LPPD 021430Z 17016KT 9999 FEW018 FEW020CB 23/18 Q1018
LPPD 021400Z 17015KT 9999 FEW018 FEW020CB 23/18 Q1018
LPPD 021330Z 15013KT 9999 FEW018 FEW020CB BKN035 23/19 Q1018
LPPD 021300Z 16013KT 9999 VCSH FEW018 FEW020CB BKN035 22/18 Q1018
LPPD 021230Z 16014KT 9999 FEW018 FEW020CB SCT040 22/19 Q1018